sensor_id;sensor_type;location;lat;lon;timestamp;temperature;humidity
33863;DHT22;20158;51.436;-2.742;2022-08-05T00:00:55;20.70;46.30
33863;DHT22;20158;51.436;-2.742;2022-08-05T00:03:21;20.60;45.60
33863;DHT22;20158;51.436;-2.742;2022-08-05T00:05:47;20.60;45.70
33863;DHT22;20158;51.436;-2.742;2022-08-05T00:08:13;20.60;45.70
33863;DHT22;20158;51.436;-2.742;2022-08-05T00:10:38;20.50;45.70
33863;DHT22;20158;51.436;-2.742;2022-08-05T00:13:04;20.50;45.70
33863;DHT22;20158;51.436;-2.742;2022-08-05T00:15:30;20.50;45.80
33863;DHT22;20158;51.436;-2.742;2022-08-05T00:17:56;20.40;45.70
33863;DHT22;20158;51.436;-2.742;2022-08-05T00:20:22;20.40;45.70
33863;DHT22;20158;51.436;-2.742;2022-08-05T00:22:48;20.40;45.80
33863;DHT22;20158;51.436;-2.742;2022-08-05T00:25:14;20.40;45.90
33863;DHT22;20158;51.436;-2.742;2022-08-05T00:27:40;20.30;45.70
33863;DHT22;20158;51.436;-2.742;2022-08-05T00:30:06;20.30;45.80
33863;DHT22;20158;51.436;-2.742;2022-08-05T00:32:32;20.30;45.90
33863;DHT22;20158;51.436;-2.742;2022-08-05T00:34:58;20.20;45.80
33863;DHT22;20158;51.436;-2.742;2022-08-05T00:37:24;20.20;45.80
33863;DHT22;20158;51.436;-2.742;2022-08-05T00:39:50;20.20;45.90
33863;DHT22;20158;51.436;-2.742;2022-08-05T00:42:29;20.20;46.00
33863;DHT22;20158;51.436;-2.742;2022-08-05T00:44:55;20.10;45.90
33863;DHT22;20158;51.436;-2.742;2022-08-05T00:47:21;20.10;45.90
33863;DHT22;20158;51.436;-2.742;2022-08-05T00:49:47;20.10;46.00
33863;DHT22;20158;51.436;-2.742;2022-08-05T00:52:13;20.00;45.90
33863;DHT22;20158;51.436;-2.742;2022-08-05T00:54:39;20.00;46.00
33863;DHT22;20158;51.436;-2.742;2022-08-05T00:57:05;20.00;46.00
33863;DHT22;20158;51.436;-2.742;2022-08-05T00:59:31;20.00;46.10
33863;DHT22;20158;51.436;-2.742;2022-08-05T01:01:56;20.00;46.20
33863;DHT22;20158;51.436;-2.742;2022-08-05T01:04:22;19.90;46.10
33863;DHT22;20158;51.436;-2.742;2022-08-05T01:06:48;19.90;46.20
33863;DHT22;20158;51.436;-2.742;2022-08-05T01:09:14;19.80;46.10
33863;DHT22;20158;51.436;-2.742;2022-08-05T01:11:41;19.80;46.10
33863;DHT22;20158;51.436;-2.742;2022-08-05T01:14:36;19.80;46.10
33863;DHT22;20158;51.436;-2.742;2022-08-05T01:17:31;19.70;46.10
33863;DHT22;20158;51.436;-2.742;2022-08-05T01:20:12;19.70;46.30
33863;DHT22;20158;51.436;-2.742;2022-08-05T01:28:32;19.60;46.30
33863;DHT22;20158;51.436;-2.742;2022-08-05T01:31:11;19.50;46.20
33863;DHT22;20158;51.436;-2.742;2022-08-05T01:33:49;19.50;46.20
33863;DHT22;20158;51.436;-2.742;2022-08-05T01:36:17;19.50;46.40
33863;DHT22;20158;51.436;-2.742;2022-08-05T01:38:45;19.40;46.30
33863;DHT22;20158;51.436;-2.742;2022-08-05T01:41:13;19.30;46.20
33863;DHT22;20158;51.436;-2.742;2022-08-05T01:43:42;19.30;46.30
33863;DHT22;20158;51.436;-2.742;2022-08-05T01:46:08;19.30;46.40
33863;DHT22;20158;51.436;-2.742;2022-08-05T01:48:35;19.30;46.50
33863;DHT22;20158;51.436;-2.742;2022-08-05T01:51:04;19.30;46.60
33863;DHT22;20158;51.436;-2.742;2022-08-05T01:53:33;19.20;46.50
33863;DHT22;20158;51.436;-2.742;2022-08-05T01:56:00;19.20;46.60
33863;DHT22;20158;51.436;-2.742;2022-08-05T01:58:28;19.10;46.50
33863;DHT22;20158;51.436;-2.742;2022-08-05T02:00:57;19.10;46.60
33863;DHT22;20158;51.436;-2.742;2022-08-05T02:03:30;19.00;46.50
33863;DHT22;20158;51.436;-2.742;2022-08-05T02:06:02;19.00;46.60
33863;DHT22;20158;51.436;-2.742;2022-08-05T02:08:31;19.00;46.70
33863;DHT22;20158;51.436;-2.742;2022-08-05T02:11:07;18.90;46.60
33863;DHT22;20158;51.436;-2.742;2022-08-05T02:13:50;18.90;46.80
33863;DHT22;20158;51.436;-2.742;2022-08-05T02:16:50;18.90;46.90
33863;DHT22;20158;51.436;-2.742;2022-08-05T02:19:35;18.80;46.80
33863;DHT22;20158;51.436;-2.742;2022-08-05T02:24:33;18.80;46.90
33863;DHT22;20158;51.436;-2.742;2022-08-05T02:27:04;18.70;46.90
33863;DHT22;20158;51.436;-2.742;2022-08-05T02:29:33;18.70;47.00
33863;DHT22;20158;51.436;-2.742;2022-08-05T02:32:00;18.60;46.90
33863;DHT22;20158;51.436;-2.742;2022-08-05T02:34:30;18.60;47.00
33863;DHT22;20158;51.436;-2.742;2022-08-05T02:36:59;18.60;47.10
33863;DHT22;20158;51.436;-2.742;2022-08-05T02:39:30;18.50;47.00
33863;DHT22;20158;51.436;-2.742;2022-08-05T02:42:00;18.50;47.10
33863;DHT22;20158;51.436;-2.742;2022-08-05T02:44:29;18.40;47.00
33863;DHT22;20158;51.436;-2.742;2022-08-05T02:46:56;18.40;47.10
33863;DHT22;20158;51.436;-2.742;2022-08-05T02:49:23;18.40;47.20
33863;DHT22;20158;51.436;-2.742;2022-08-05T02:51:50;18.40;47.30
33863;DHT22;20158;51.436;-2.742;2022-08-05T02:54:19;18.30;47.20
33863;DHT22;20158;51.436;-2.742;2022-08-05T02:56:46;18.30;47.30
33863;DHT22;20158;51.436;-2.742;2022-08-05T02:59:13;18.20;47.20
33863;DHT22;20158;51.436;-2.742;2022-08-05T03:01:40;18.20;47.40
33863;DHT22;20158;51.436;-2.742;2022-08-05T03:04:10;18.10;47.30
33863;DHT22;20158;51.436;-2.742;2022-08-05T03:06:38;18.10;47.30
33863;DHT22;20158;51.436;-2.742;2022-08-05T03:09:06;18.10;47.40
33863;DHT22;20158;51.436;-2.742;2022-08-05T03:11:32;18.00;47.30
33863;DHT22;20158;51.436;-2.742;2022-08-05T03:13:58;18.00;47.50
33863;DHT22;20158;51.436;-2.742;2022-08-05T03:16:24;18.00;47.60
33863;DHT22;20158;51.436;-2.742;2022-08-05T03:18:50;17.90;47.50
33863;DHT22;20158;51.436;-2.742;2022-08-05T03:21:16;17.90;47.60
33863;DHT22;20158;51.436;-2.742;2022-08-05T03:23:42;17.80;47.50
33863;DHT22;20158;51.436;-2.742;2022-08-05T03:26:09;17.80;47.60
33863;DHT22;20158;51.436;-2.742;2022-08-05T03:28:36;17.70;47.50
33863;DHT22;20158;51.436;-2.742;2022-08-05T03:31:02;17.70;47.60
33863;DHT22;20158;51.436;-2.742;2022-08-05T03:33:29;17.70;47.70
33863;DHT22;20158;51.436;-2.742;2022-08-05T03:35:57;17.60;47.60
33863;DHT22;20158;51.436;-2.742;2022-08-05T03:38:24;17.60;47.70
33863;DHT22;20158;51.436;-2.742;2022-08-05T03:40:51;17.60;47.80
33863;DHT22;20158;51.436;-2.742;2022-08-05T03:43:20;17.50;47.70
33863;DHT22;20158;51.436;-2.742;2022-08-05T03:45:49;17.50;47.80
33863;DHT22;20158;51.436;-2.742;2022-08-05T03:48:16;17.40;47.80
33863;DHT22;20158;51.436;-2.742;2022-08-05T03:50:43;17.40;47.80
33863;DHT22;20158;51.436;-2.742;2022-08-05T03:53:13;17.30;47.80
33863;DHT22;20158;51.436;-2.742;2022-08-05T03:55:51;17.30;47.90
33863;DHT22;20158;51.436;-2.742;2022-08-05T03:58:21;17.20;47.80
33863;DHT22;20158;51.436;-2.742;2022-08-05T04:00:51;17.20;47.90
33863;DHT22;20158;51.436;-2.742;2022-08-05T04:03:20;17.20;48.10
33863;DHT22;20158;51.436;-2.742;2022-08-05T04:05:46;17.10;47.90
33863;DHT22;20158;51.436;-2.742;2022-08-05T04:08:14;17.00;47.80
33863;DHT22;20158;51.436;-2.742;2022-08-05T04:10:42;17.00;47.90
33863;DHT22;20158;51.436;-2.742;2022-08-05T04:13:09;17.00;48.10
33863;DHT22;20158;51.436;-2.742;2022-08-05T04:15:36;16.90;48.00
33863;DHT22;20158;51.436;-2.742;2022-08-05T04:18:05;16.90;48.10
33863;DHT22;20158;51.436;-2.742;2022-08-05T04:20:31;16.90;48.20
33863;DHT22;20158;51.436;-2.742;2022-08-05T04:22:57;16.80;48.70
33863;DHT22;20158;51.436;-2.742;2022-08-05T04:25:23;16.80;48.20
33863;DHT22;20158;51.436;-2.742;2022-08-05T04:27:49;16.70;48.10
33863;DHT22;20158;51.436;-2.742;2022-08-05T04:30:15;16.70;48.20
33863;DHT22;20158;51.436;-2.742;2022-08-05T04:32:41;16.70;48.20
33863;DHT22;20158;51.436;-2.742;2022-08-05T04:35:07;16.60;48.20
33863;DHT22;20158;51.436;-2.742;2022-08-05T04:37:33;16.60;48.30
33863;DHT22;20158;51.436;-2.742;2022-08-05T04:39:59;16.50;48.20
33863;DHT22;20158;51.436;-2.742;2022-08-05T04:42:25;16.50;48.30
33863;DHT22;20158;51.436;-2.742;2022-08-05T04:44:51;16.50;48.30
33863;DHT22;20158;51.436;-2.742;2022-08-05T04:47:16;16.50;48.40
33863;DHT22;20158;51.436;-2.742;2022-08-05T04:49:42;16.40;48.30
33863;DHT22;20158;51.436;-2.742;2022-08-05T04:52:08;16.40;48.50
33863;DHT22;20158;51.436;-2.742;2022-08-05T04:54:34;16.30;48.30
33863;DHT22;20158;51.436;-2.742;2022-08-05T04:57:00;16.30;48.40
33863;DHT22;20158;51.436;-2.742;2022-08-05T04:59:26;16.30;48.50
33863;DHT22;20158;51.436;-2.742;2022-08-05T05:01:52;16.30;48.50
33863;DHT22;20158;51.436;-2.742;2022-08-05T05:04:17;16.20;48.30
33863;DHT22;20158;51.436;-2.742;2022-08-05T05:06:43;16.20;48.40
33863;DHT22;20158;51.436;-2.742;2022-08-05T05:09:12;16.30;48.60
33863;DHT22;20158;51.436;-2.742;2022-08-05T05:11:38;16.20;48.60
33863;DHT22;20158;51.436;-2.742;2022-08-05T05:14:04;16.20;48.60
33863;DHT22;20158;51.436;-2.742;2022-08-05T05:16:31;16.20;48.60
33863;DHT22;20158;51.436;-2.742;2022-08-05T05:18:57;16.20;48.70
33863;DHT22;20158;51.436;-2.742;2022-08-05T05:21:23;16.10;48.50
33863;DHT22;20158;51.436;-2.742;2022-08-05T05:23:49;16.10;48.60
33863;DHT22;20158;51.436;-2.742;2022-08-05T05:26:15;16.10;49.20
33863;DHT22;20158;51.436;-2.742;2022-08-05T05:28:41;16.20;48.80
33863;DHT22;20158;51.436;-2.742;2022-08-05T05:31:06;16.20;48.90
33863;DHT22;20158;51.436;-2.742;2022-08-05T05:33:32;16.20;48.80
33863;DHT22;20158;51.436;-2.742;2022-08-05T05:35:58;16.20;48.80
33863;DHT22;20158;51.436;-2.742;2022-08-05T05:38:24;16.30;49.00
33863;DHT22;20158;51.436;-2.742;2022-08-05T05:40:50;16.30;49.00
33863;DHT22;20158;51.436;-2.742;2022-08-05T05:43:16;16.40;49.10
33863;DHT22;20158;51.436;-2.742;2022-08-05T05:45:42;16.40;49.10
33863;DHT22;20158;51.436;-2.742;2022-08-05T05:48:08;16.50;49.30
33863;DHT22;20158;51.436;-2.742;2022-08-05T05:50:35;16.60;49.40
33863;DHT22;20158;51.436;-2.742;2022-08-05T05:53:01;16.60;49.40
33863;DHT22;20158;51.436;-2.742;2022-08-05T05:55:27;16.70;49.50
33863;DHT22;20158;51.436;-2.742;2022-08-05T05:57:52;16.70;49.50
33863;DHT22;20158;51.436;-2.742;2022-08-05T06:00:19;16.80;49.70
33863;DHT22;20158;51.436;-2.742;2022-08-05T06:02:46;16.90;49.90
33863;DHT22;20158;51.436;-2.742;2022-08-05T06:05:14;16.90;49.80
33863;DHT22;20158;51.436;-2.742;2022-08-05T06:07:40;17.00;49.90
33863;DHT22;20158;51.436;-2.742;2022-08-05T06:10:08;17.10;50.00
33863;DHT22;20158;51.436;-2.742;2022-08-05T06:12:35;17.20;50.10
33863;DHT22;20158;51.436;-2.742;2022-08-05T06:15:04;17.40;50.40
33863;DHT22;20158;51.436;-2.742;2022-08-05T06:17:30;17.50;50.30
33863;DHT22;20158;51.436;-2.742;2022-08-05T06:19:56;17.70;50.30
33863;DHT22;20158;51.436;-2.742;2022-08-05T06:22:23;18.00;50.30
33863;DHT22;20158;51.436;-2.742;2022-08-05T06:24:50;18.30;50.30
33863;DHT22;20158;51.436;-2.742;2022-08-05T06:27:16;18.60;50.10
33863;DHT22;20158;51.436;-2.742;2022-08-05T06:29:41;19.00;50.00
33863;DHT22;20158;51.436;-2.742;2022-08-05T06:32:08;19.30;49.70
33863;DHT22;20158;51.436;-2.742;2022-08-05T06:34:34;19.80;49.70
33863;DHT22;20158;51.436;-2.742;2022-08-05T06:37:00;20.10;49.40
33863;DHT22;20158;51.436;-2.742;2022-08-05T06:39:26;20.50;49.90
33863;DHT22;20158;51.436;-2.742;2022-08-05T06:41:52;20.90;49.20
33863;DHT22;20158;51.436;-2.742;2022-08-05T06:44:18;21.30;49.00
33863;DHT22;20158;51.436;-2.742;2022-08-05T06:46:43;21.70;48.90
33863;DHT22;20158;51.436;-2.742;2022-08-05T06:49:09;22.00;48.60
33863;DHT22;20158;51.436;-2.742;2022-08-05T06:51:35;22.30;48.40
33863;DHT22;20158;51.436;-2.742;2022-08-05T06:54:02;22.70;48.40
33863;DHT22;20158;51.436;-2.742;2022-08-05T06:56:29;23.00;48.20
33863;DHT22;20158;51.436;-2.742;2022-08-05T06:58:56;23.30;48.00
33863;DHT22;20158;51.436;-2.742;2022-08-05T07:01:22;23.50;47.70
33863;DHT22;20158;51.436;-2.742;2022-08-05T07:03:48;23.80;47.50
33863;DHT22;20158;51.436;-2.742;2022-08-05T07:06:14;24.10;47.30
33863;DHT22;20158;51.436;-2.742;2022-08-05T07:08:43;24.40;47.00
33863;DHT22;20158;51.436;-2.742;2022-08-05T07:11:10;24.90;46.80
33863;DHT22;20158;51.436;-2.742;2022-08-05T07:13:36;25.20;46.40
33863;DHT22;20158;51.436;-2.742;2022-08-05T07:16:20;25.50;45.90
33863;DHT22;20158;51.436;-2.742;2022-08-05T07:19:05;25.70;45.40
33863;DHT22;20158;51.436;-2.742;2022-08-05T07:21:31;25.90;44.90
33863;DHT22;20158;51.436;-2.742;2022-08-05T07:23:57;26.10;44.50
33863;DHT22;20158;51.436;-2.742;2022-08-05T07:26:23;26.20;44.10
33863;DHT22;20158;51.436;-2.742;2022-08-05T07:28:48;26.40;43.80
33863;DHT22;20158;51.436;-2.742;2022-08-05T07:31:17;26.60;43.40
33863;DHT22;20158;51.436;-2.742;2022-08-05T07:33:43;26.80;43.00
33863;DHT22;20158;51.436;-2.742;2022-08-05T07:36:09;26.90;42.40
33863;DHT22;20158;51.436;-2.742;2022-08-05T07:38:36;27.10;42.00
33863;DHT22;20158;51.436;-2.742;2022-08-05T07:41:03;27.30;41.60
33863;DHT22;20158;51.436;-2.742;2022-08-05T07:43:30;27.50;41.20
33863;DHT22;20158;51.436;-2.742;2022-08-05T07:45:55;27.60;40.90
33863;DHT22;20158;51.436;-2.742;2022-08-05T07:48:21;27.70;40.90
33863;DHT22;20158;51.436;-2.742;2022-08-05T07:50:47;27.80;41.00
33863;DHT22;20158;51.436;-2.742;2022-08-05T07:53:13;27.70;41.10
33863;DHT22;20158;51.436;-2.742;2022-08-05T07:55:39;27.70;41.50
33863;DHT22;20158;51.436;-2.742;2022-08-05T07:58:05;27.60;41.70
33863;DHT22;20158;51.436;-2.742;2022-08-05T08:00:31;27.60;41.90
33863;DHT22;20158;51.436;-2.742;2022-08-05T08:02:57;27.60;42.00
33863;DHT22;20158;51.436;-2.742;2022-08-05T08:05:23;27.60;42.00
33863;DHT22;20158;51.436;-2.742;2022-08-05T08:07:49;27.60;42.00
33863;DHT22;20158;51.436;-2.742;2022-08-05T08:10:14;27.60;42.00
33863;DHT22;20158;51.436;-2.742;2022-08-05T08:12:40;27.50;42.00
33863;DHT22;20158;51.436;-2.742;2022-08-05T08:15:08;27.50;42.60
33863;DHT22;20158;51.436;-2.742;2022-08-05T08:17:34;27.50;42.00
33863;DHT22;20158;51.436;-2.742;2022-08-05T08:20:00;27.50;41.80
33863;DHT22;20158;51.436;-2.742;2022-08-05T08:22:29;27.50;41.70
33863;DHT22;20158;51.436;-2.742;2022-08-05T08:24:55;27.40;41.50
33863;DHT22;20158;51.436;-2.742;2022-08-05T08:27:21;27.30;41.40
33863;DHT22;20158;51.436;-2.742;2022-08-05T08:29:47;27.20;41.40
33863;DHT22;20158;51.436;-2.742;2022-08-05T08:32:13;27.10;41.50
33863;DHT22;20158;51.436;-2.742;2022-08-05T08:34:39;26.80;41.50
33863;DHT22;20158;51.436;-2.742;2022-08-05T08:37:05;26.60;41.60
33863;DHT22;20158;51.436;-2.742;2022-08-05T08:39:31;26.40;41.80
33863;DHT22;20158;51.436;-2.742;2022-08-05T08:41:57;26.30;41.90
33863;DHT22;20158;51.436;-2.742;2022-08-05T08:44:30;26.10;42.00
33863;DHT22;20158;51.436;-2.742;2022-08-05T08:46:56;25.90;42.00
33863;DHT22;20158;51.436;-2.742;2022-08-05T08:49:23;25.80;42.10
33863;DHT22;20158;51.436;-2.742;2022-08-05T08:52:28;25.70;42.20
33863;DHT22;20158;51.436;-2.742;2022-08-05T08:54:55;25.60;42.30
33863;DHT22;20158;51.436;-2.742;2022-08-05T08:57:21;25.50;42.50
33863;DHT22;20158;51.436;-2.742;2022-08-05T08:59:48;25.40;42.50
33863;DHT22;20158;51.436;-2.742;2022-08-05T09:02:15;25.30;42.50
33863;DHT22;20158;51.436;-2.742;2022-08-05T09:04:44;25.20;42.70
33863;DHT22;20158;51.436;-2.742;2022-08-05T09:07:10;25.10;42.90
33863;DHT22;20158;51.436;-2.742;2022-08-05T09:09:36;24.90;43.00
33863;DHT22;20158;51.436;-2.742;2022-08-05T09:12:03;24.80;42.90
33863;DHT22;20158;51.436;-2.742;2022-08-05T09:14:31;24.70;42.50
33863;DHT22;20158;51.436;-2.742;2022-08-05T09:17:03;24.50;42.00
33863;DHT22;20158;51.436;-2.742;2022-08-05T09:19:29;24.50;41.80
33863;DHT22;20158;51.436;-2.742;2022-08-05T09:21:54;24.40;41.50
33863;DHT22;20158;51.436;-2.742;2022-08-05T09:24:20;24.20;41.10
33863;DHT22;20158;51.436;-2.742;2022-08-05T09:26:50;24.10;41.00
33863;DHT22;20158;51.436;-2.742;2022-08-05T09:29:16;24.10;41.00
33863;DHT22;20158;51.436;-2.742;2022-08-05T09:31:42;24.10;41.00
33863;DHT22;20158;51.436;-2.742;2022-08-05T09:34:11;24.10;41.00
33863;DHT22;20158;51.436;-2.742;2022-08-05T09:39:08;24.10;40.70
33863;DHT22;20158;51.436;-2.742;2022-08-05T09:42:00;24.10;40.60
33863;DHT22;20158;51.436;-2.742;2022-08-05T09:44:39;24.20;40.50
33863;DHT22;20158;51.436;-2.742;2022-08-05T09:49:49;24.40;40.70
33863;DHT22;20158;51.436;-2.742;2022-08-05T09:52:21;24.60;40.90
33863;DHT22;20158;51.436;-2.742;2022-08-05T09:55:03;24.70;40.90
33863;DHT22;20158;51.436;-2.742;2022-08-05T09:57:39;24.70;40.80
33863;DHT22;20158;51.436;-2.742;2022-08-05T10:02:46;24.60;40.90
33863;DHT22;20158;51.436;-2.742;2022-08-05T10:05:15;24.80;41.20
33863;DHT22;20158;51.436;-2.742;2022-08-05T10:08:03;24.90;41.30
33863;DHT22;20158;51.436;-2.742;2022-08-05T10:10:38;25.00;41.20
33863;DHT22;20158;51.436;-2.742;2022-08-05T10:13:05;25.10;41.20
33863;DHT22;20158;51.436;-2.742;2022-08-05T10:15:34;25.10;41.20
33863;DHT22;20158;51.436;-2.742;2022-08-05T10:18:04;25.00;41.20
33863;DHT22;20158;51.436;-2.742;2022-08-05T10:20:38;24.90;41.00
33863;DHT22;20158;51.436;-2.742;2022-08-05T10:23:04;25.00;41.10
33863;DHT22;20158;51.436;-2.742;2022-08-05T10:25:30;25.20;40.90
33863;DHT22;20158;51.436;-2.742;2022-08-05T10:27:57;25.30;40.60
33863;DHT22;20158;51.436;-2.742;2022-08-05T10:30:23;25.60;40.40
33863;DHT22;20158;51.436;-2.742;2022-08-05T10:32:49;25.70;40.20
33863;DHT22;20158;51.436;-2.742;2022-08-05T10:35:15;26.00;39.90
33863;DHT22;20158;51.436;-2.742;2022-08-05T10:37:41;26.20;40.20
33863;DHT22;20158;51.436;-2.742;2022-08-05T10:40:27;26.10;39.30
33863;DHT22;20158;51.436;-2.742;2022-08-05T10:43:01;26.00;39.40
33863;DHT22;20158;51.436;-2.742;2022-08-05T10:45:29;25.70;39.60
33863;DHT22;20158;51.436;-2.742;2022-08-05T10:47:55;25.50;39.70
33863;DHT22;20158;51.436;-2.742;2022-08-05T10:50:21;25.30;39.80
33863;DHT22;20158;51.436;-2.742;2022-08-05T10:52:51;25.30;39.80
33863;DHT22;20158;51.436;-2.742;2022-08-05T10:55:22;25.30;39.70
33863;DHT22;20158;51.436;-2.742;2022-08-05T10:57:48;25.30;39.70
33863;DHT22;20158;51.436;-2.742;2022-08-05T11:00:30;25.20;39.80
33863;DHT22;20158;51.436;-2.742;2022-08-05T11:05:32;25.10;39.90
33863;DHT22;20158;51.436;-2.742;2022-08-05T11:08:00;25.10;40.10
33863;DHT22;20158;51.436;-2.742;2022-08-05T11:10:30;25.10;39.90
33863;DHT22;20158;51.436;-2.742;2022-08-05T11:12:58;25.30;39.70
33863;DHT22;20158;51.436;-2.742;2022-08-05T11:15:26;25.40;39.50
33863;DHT22;20158;51.436;-2.742;2022-08-05T11:18:26;25.50;39.30
33863;DHT22;20158;51.436;-2.742;2022-08-05T11:20:53;25.70;39.10
33863;DHT22;20158;51.436;-2.742;2022-08-05T11:23:56;25.80;39.10
33863;DHT22;20158;51.436;-2.742;2022-08-05T11:26:22;25.90;38.90
33863;DHT22;20158;51.436;-2.742;2022-08-05T11:28:50;26.00;38.90
33863;DHT22;20158;51.436;-2.742;2022-08-05T11:31:17;26.10;38.80
33863;DHT22;20158;51.436;-2.742;2022-08-05T11:36:18;26.30;38.50
33863;DHT22;20158;51.436;-2.742;2022-08-05T11:44:06;26.70;37.90
33863;DHT22;20158;51.436;-2.742;2022-08-05T11:46:49;26.60;37.80
33863;DHT22;20158;51.436;-2.742;2022-08-05T11:49:17;26.60;37.90
33863;DHT22;20158;51.436;-2.742;2022-08-05T11:51:46;26.60;38.00
33863;DHT22;20158;51.436;-2.742;2022-08-05T11:54:19;26.60;37.80
33863;DHT22;20158;51.436;-2.742;2022-08-05T11:56:50;26.70;37.80
33863;DHT22;20158;51.436;-2.742;2022-08-05T11:59:27;26.70;37.70
33863;DHT22;20158;51.436;-2.742;2022-08-05T12:02:06;26.60;37.70
33863;DHT22;20158;51.436;-2.742;2022-08-05T12:04:39;26.60;37.80
33863;DHT22;20158;51.436;-2.742;2022-08-05T12:07:07;26.60;38.00
33863;DHT22;20158;51.436;-2.742;2022-08-05T12:09:37;26.60;38.00
33863;DHT22;20158;51.436;-2.742;2022-08-05T12:12:05;26.50;38.10
33863;DHT22;20158;51.436;-2.742;2022-08-05T12:17:07;26.10;38.20
33863;DHT22;20158;51.436;-2.742;2022-08-05T12:19:43;25.90;38.20
33863;DHT22;20158;51.436;-2.742;2022-08-05T12:22:10;25.80;38.20
33863;DHT22;20158;51.436;-2.742;2022-08-05T12:24:45;25.70;38.40
33863;DHT22;20158;51.436;-2.742;2022-08-05T12:27:23;25.70;38.30
33863;DHT22;20158;51.436;-2.742;2022-08-05T12:30:07;25.90;38.10
33863;DHT22;20158;51.436;-2.742;2022-08-05T12:32:34;26.10;37.90
33863;DHT22;20158;51.436;-2.742;2022-08-05T12:35:07;26.30;37.90
33863;DHT22;20158;51.436;-2.742;2022-08-05T12:37:34;26.50;37.80
33863;DHT22;20158;51.436;-2.742;2022-08-05T12:40:00;26.60;37.50
33863;DHT22;20158;51.436;-2.742;2022-08-05T12:42:28;26.70;37.50
33863;DHT22;20158;51.436;-2.742;2022-08-05T12:45:05;26.80;37.50
33863;DHT22;20158;51.436;-2.742;2022-08-05T12:47:31;27.00;37.30
33863;DHT22;20158;51.436;-2.742;2022-08-05T12:49:58;27.30;37.20
33863;DHT22;20158;51.436;-2.742;2022-08-05T12:52:24;27.50;36.90
33863;DHT22;20158;51.436;-2.742;2022-08-05T12:54:50;27.70;36.70
33863;DHT22;20158;51.436;-2.742;2022-08-05T12:57:17;27.80;36.50
33863;DHT22;20158;51.436;-2.742;2022-08-05T12:59:54;27.70;36.40
33863;DHT22;20158;51.436;-2.742;2022-08-05T13:02:22;27.60;36.40
33863;DHT22;20158;51.436;-2.742;2022-08-05T13:04:49;27.50;36.70
33863;DHT22;20158;51.436;-2.742;2022-08-05T13:07:23;27.30;36.80
33863;DHT22;20158;51.436;-2.742;2022-08-05T13:09:53;27.30;36.80
33863;DHT22;20158;51.436;-2.742;2022-08-05T13:12:21;27.40;36.60
33863;DHT22;20158;51.436;-2.742;2022-08-05T13:14:55;27.30;36.50
33863;DHT22;20158;51.436;-2.742;2022-08-05T13:17:24;27.50;36.70
33863;DHT22;20158;51.436;-2.742;2022-08-05T13:20:03;27.70;36.50
33863;DHT22;20158;51.436;-2.742;2022-08-05T13:22:37;28.00;36.50
33863;DHT22;20158;51.436;-2.742;2022-08-05T13:25:06;28.10;36.40
33863;DHT22;20158;51.436;-2.742;2022-08-05T13:27:38;28.20;36.50
33863;DHT22;20158;51.436;-2.742;2022-08-05T13:30:10;28.00;36.50
33863;DHT22;20158;51.436;-2.742;2022-08-05T13:32:37;27.80;36.70
33863;DHT22;20158;51.436;-2.742;2022-08-05T13:35:03;27.60;36.80
33863;DHT22;20158;51.436;-2.742;2022-08-05T13:37:30;27.50;37.00
33863;DHT22;20158;51.436;-2.742;2022-08-05T13:39:57;27.60;37.00
33863;DHT22;20158;51.436;-2.742;2022-08-05T13:42:24;27.80;36.80
33863;DHT22;20158;51.436;-2.742;2022-08-05T13:44:52;28.10;36.60
33863;DHT22;20158;51.436;-2.742;2022-08-05T13:47:18;28.40;36.30
33863;DHT22;20158;51.436;-2.742;2022-08-05T13:49:44;28.80;36.10
33863;DHT22;20158;51.436;-2.742;2022-08-05T13:52:18;29.00;35.70
33863;DHT22;20158;51.436;-2.742;2022-08-05T13:54:44;29.40;35.60
33863;DHT22;20158;51.436;-2.742;2022-08-05T13:57:10;29.60;35.40
33863;DHT22;20158;51.436;-2.742;2022-08-05T13:59:38;29.90;35.20
33863;DHT22;20158;51.436;-2.742;2022-08-05T14:02:05;30.10;34.80
33863;DHT22;20158;51.436;-2.742;2022-08-05T14:04:34;30.40;34.60
33863;DHT22;20158;51.436;-2.742;2022-08-05T14:07:40;30.70;34.30
33863;DHT22;20158;51.436;-2.742;2022-08-05T14:10:14;30.80;33.90
33863;DHT22;20158;51.436;-2.742;2022-08-05T14:12:41;30.90;33.80
33863;DHT22;20158;51.436;-2.742;2022-08-05T14:15:08;30.90;33.80
33863;DHT22;20158;51.436;-2.742;2022-08-05T14:17:34;30.80;33.60
33863;DHT22;20158;51.436;-2.742;2022-08-05T14:20:00;30.70;33.80
33863;DHT22;20158;51.436;-2.742;2022-08-05T14:22:26;30.70;33.60
33863;DHT22;20158;51.436;-2.742;2022-08-05T14:24:51;30.70;33.50
33863;DHT22;20158;51.436;-2.742;2022-08-05T14:27:17;30.70;33.30
33863;DHT22;20158;51.436;-2.742;2022-08-05T14:29:43;30.70;33.10
33863;DHT22;20158;51.436;-2.742;2022-08-05T14:32:09;30.80;32.90
33863;DHT22;20158;51.436;-2.742;2022-08-05T14:34:35;30.90;32.60
33863;DHT22;20158;51.436;-2.742;2022-08-05T14:37:02;30.90;32.50
33863;DHT22;20158;51.436;-2.742;2022-08-05T14:39:28;31.00;32.30
33863;DHT22;20158;51.436;-2.742;2022-08-05T14:41:54;31.00;32.10
33863;DHT22;20158;51.436;-2.742;2022-08-05T14:44:20;31.10;32.10
33863;DHT22;20158;51.436;-2.742;2022-08-05T14:46:46;31.10;32.00
33863;DHT22;20158;51.436;-2.742;2022-08-05T14:49:12;31.20;31.90
33863;DHT22;20158;51.436;-2.742;2022-08-05T14:51:39;31.20;31.80
33863;DHT22;20158;51.436;-2.742;2022-08-05T14:54:05;31.20;31.70
33863;DHT22;20158;51.436;-2.742;2022-08-05T14:56:32;31.10;31.90
33863;DHT22;20158;51.436;-2.742;2022-08-05T14:58:58;31.10;32.20
33863;DHT22;20158;51.436;-2.742;2022-08-05T15:01:24;31.10;32.40
33863;DHT22;20158;51.436;-2.742;2022-08-05T15:03:50;31.00;32.70
33863;DHT22;20158;51.436;-2.742;2022-08-05T15:06:16;30.90;32.80
33863;DHT22;20158;51.436;-2.742;2022-08-05T15:08:43;30.80;32.90
33863;DHT22;20158;51.436;-2.742;2022-08-05T15:11:09;30.70;33.00
33863;DHT22;20158;51.436;-2.742;2022-08-05T15:13:35;30.70;33.20
33863;DHT22;20158;51.436;-2.742;2022-08-05T15:16:02;30.90;33.10
33863;DHT22;20158;51.436;-2.742;2022-08-05T15:18:28;31.10;33.10
33863;DHT22;20158;51.436;-2.742;2022-08-05T15:20:54;31.50;33.00
33863;DHT22;20158;51.436;-2.742;2022-08-05T15:23:20;31.90;32.80
33863;DHT22;20158;51.436;-2.742;2022-08-05T15:25:46;32.40;32.60
33863;DHT22;20158;51.436;-2.742;2022-08-05T15:28:13;32.80;32.40
33863;DHT22;20158;51.436;-2.742;2022-08-05T15:30:39;33.10;32.10
33863;DHT22;20158;51.436;-2.742;2022-08-05T15:33:05;33.20;31.80
33863;DHT22;20158;51.436;-2.742;2022-08-05T15:35:32;33.20;31.70
33863;DHT22;20158;51.436;-2.742;2022-08-05T15:37:58;33.00;31.60
33863;DHT22;20158;51.436;-2.742;2022-08-05T15:40:24;33.10;31.70
33863;DHT22;20158;51.436;-2.742;2022-08-05T15:42:50;33.20;31.70
33863;DHT22;20158;51.436;-2.742;2022-08-05T15:45:17;33.30;31.70
33863;DHT22;20158;51.436;-2.742;2022-08-05T15:47:44;33.40;31.50
33863;DHT22;20158;51.436;-2.742;2022-08-05T15:50:12;33.50;31.40
33863;DHT22;20158;51.436;-2.742;2022-08-05T15:52:38;33.70;31.30